Time;durP1;ratioP1;P1;durP2;ratioP2;P2;SDS_P1;SDS_P2;PMS_P1;PMS_P2;Temp;Humidity;BMP_temperature;BMP_pressure;BME280_temperature;BME280_humidity;BME280_pressure;Samples;Min_cycle;Max_cycle;Signal;HPM_P1;HPM_P2
2021/12/11 00:02:30;;;;;;;0.00;0.00;;;11.10;82.50;;;;;;5055928;28;20051;-81
2021/12/11 00:04:57;;;;;;;0.00;0.00;;;11.10;82.50;;;;;;5054308;28;20053;-81
2021/12/11 00:07:26;;;;;;;0.00;0.00;;;11.10;82.50;;;;;;5055408;28;20021;-83
2021/12/11 00:10:20;;;;;;;0.00;0.00;;;11.20;82.40;;;;;;5056113;28;20060;-82
2021/12/11 00:12:55;;;;;;;0.00;0.00;;;11.20;82.50;;;;;;5049320;28;20036;-83
2021/12/11 00:15:23;;;;;;;;;;;11.20;82.50;;;;;;5056486;28;20420;-82
2021/12/11 00:17:55;;;;;;;0.00;0.00;;;11.20;82.40;;;;;;5055383;28;19912;-83
2021/12/11 00:20:26;;;;;;;0.00;0.00;;;11.20;82.10;;;;;;5055793;28;20020;-82
2021/12/11 00:22:53;;;;;;;0.00;0.00;;;11.20;82.70;;;;;;5055580;28;20064;-81
2021/12/11 00:25:19;;;;;;;0.00;0.00;;;11.20;82.10;;;;;;5055733;28;20036;-81
2021/12/11 00:27:48;;;;;;;0.00;0.00;;;11.20;82.00;;;;;;5055232;28;20335;-81
2021/12/11 00:30:25;;;;;;;0.00;0.00;;;11.20;81.90;;;;;;5055440;28;20108;-81
2021/12/11 00:33:22;;;;;;;0.00;0.00;;;11.20;82.40;;;;;;5055019;28;20117;-81
2021/12/11 00:35:50;;;;;;;0.00;0.00;;;11.20;81.70;;;;;;5056210;28;20021;-83
2021/12/11 00:38:21;;;;;;;0.00;0.00;;;11.20;81.70;;;;;;5055105;28;20385;-81
2021/12/11 00:40:49;;;;;;;0.00;0.00;;;11.30;82.20;;;;;;5054693;28;20025;-81
2021/12/11 00:43:21;;;;;;;0.00;0.00;;;11.20;81.50;;;;;;5055971;28;20044;-82
2021/12/11 00:45:49;;;;;;;0.00;0.00;;;11.20;81.40;;;;;;5055109;28;20029;-82
2021/12/11 00:48:20;;;;;;;0.00;0.00;;;11.20;81.30;;;;;;5054923;28;20029;-81
2021/12/11 00:50:49;;;;;;;0.00;0.00;;;11.20;81.20;;;;;;5055846;28;20369;-81
2021/12/11 00:53:24;;;;;;;0.00;0.00;;;11.20;81.20;;;;;;5055892;28;20069;-81
2021/12/11 00:55:55;;;;;;;0.00;0.00;;;11.20;81.20;;;;;;5055591;28;20041;-81
2021/12/11 00:58:28;;;;;;;0.00;0.00;;;11.20;81.70;;;;;;5038854;28;20060;-81
2021/12/11 01:01:19;;;;;;;0.00;0.00;;;11.20;80.70;;;;;;5056421;28;20049;-81
2021/12/11 01:03:51;;;;;;;0.00;0.00;;;11.10;80.30;;;;;;5054440;28;20077;-81
2021/12/11 01:06:45;;;;;;;0.00;0.00;;;10.90;80.30;;;;;;5056973;28;20047;-81
2021/12/11 01:09:30;;;;;;;0.00;0.00;;;10.80;80.50;;;;;;5056531;28;20037;-81
2021/12/11 01:12:02;;;;;;;0.00;0.00;;;10.70;80.50;;;;;;5057340;28;20076;-81
2021/12/11 01:14:40;;;;;;;0.00;0.00;;;10.60;80.40;;;;;;5058253;28;20025;-81
2021/12/11 01:17:22;;;;;;;0.00;0.00;;;10.60;80.20;;;;;;5056554;28;20078;-79
2021/12/11 01:19:55;;;;;;;0.00;0.00;;;10.50;80.30;;;;;;5058507;28;20021;-80
2021/12/11 01:22:33;;;;;;;0.00;0.00;;;10.40;80.30;;;;;;5056763;28;20059;-80
2021/12/11 01:25:16;;;;;;;0.00;0.00;;;10.30;80.80;;;;;;5057447;28;20025;-80
2021/12/11 01:27:47;;;;;;;0.00;0.00;;;10.30;81.00;;;;;;5057653;28;20029;-81
2021/12/11 01:30:27;;;;;;;0.00;0.00;;;10.20;81.10;;;;;;5056544;28;20025;-81
2021/12/11 01:32:53;;;;;;;0.00;0.00;;;10.10;81.30;;;;;;5056278;28;20033;-82
2021/12/11 01:35:20;;;;;;;0.00;0.00;;;10.00;81.10;;;;;;5055503;28;20446;-80
2021/12/11 01:37:48;;;;;;;0.00;0.00;;;9.90;81.20;;;;;;5054611;28;20029;-82
2021/12/11 01:40:18;;;;;;;0.00;0.00;;;9.80;81.30;;;;;;5053789;28;20374;-80
2021/12/11 01:42:44;;;;;;;0.00;0.00;;;9.70;81.60;;;;;;5053404;28;20032;-82
2021/12/11 01:45:14;;;;;;;0.00;0.00;;;9.60;81.90;;;;;;5054915;28;20033;-81
2021/12/11 01:47:44;;;;;;;0.00;0.00;;;9.60;82.40;;;;;;5036812;28;20037;-81
2021/12/11 01:50:16;;;;;;;0.00;0.00;;;9.50;82.60;;;;;;5054407;28;20029;-81
2021/12/11 01:52:58;;;;;;;0.00;0.00;;;9.50;83.00;;;;;;5054539;28;20535;-81
2021/12/11 01:55:23;;;;;;;0.00;0.00;;;9.50;83.00;;;;;;5055128;28;20076;-82
2021/12/11 01:57:51;;;;;;;0.00;0.00;;;9.50;83.20;;;;;;5053546;28;20025;-81
2021/12/11 02:00:32;;;;;;;0.00;0.00;;;9.50;83.40;;;;;;5054380;28;20475;-81
2021/12/11 02:03:05;;;;;;;0.00;0.00;;;9.50;83.30;;;;;;5054960;28;20051;-82
2021/12/11 02:05:34;;;;;;;0.00;0.00;;;9.50;83.10;;;;;;5055448;28;20049;-81
2021/12/11 02:08:08;;;;;;;0.00;0.00;;;9.50;83.10;;;;;;5053637;28;20112;-81
2021/12/11 02:10:39;;;;;;;0.00;0.00;;;9.50;83.00;;;;;;5054975;28;20025;-81
2021/12/11 02:13:11;;;;;;;0.00;0.00;;;9.50;83.00;;;;;;5053438;28;20473;-80
2021/12/11 02:15:46;;;;;;;0.00;0.00;;;9.50;83.00;;;;;;5053766;28;20021;-81
2021/12/11 02:18:36;;;;;;;0.00;0.00;;;9.60;83.10;;;;;;5054722;28;20021;-81
2021/12/11 02:21:18;;;;;;;0.00;0.00;;;9.60;82.80;;;;;;5055111;28;20075;-82
2021/12/11 02:23:50;;;;;;;0.00;0.00;;;9.50;82.80;;;;;;5054142;28;20068;-82
2021/12/11 02:26:16;;;;;;;0.00;0.00;;;9.50;82.90;;;;;;5054366;28;20050;-81
2021/12/11 02:29:04;;;;;;;0.00;0.00;;;9.50;83.10;;;;;;5054347;28;20028;-81
2021/12/11 02:31:56;;;;;;;0.00;0.00;;;9.40;83.10;;;;;;5054731;28;20022;-82
2021/12/11 02:34:26;;;;;;;0.00;0.00;;;9.40;83.20;;;;;;5054864;28;20053;-82
2021/12/11 02:37:00;;;;;;;0.00;0.00;;;9.40;83.20;;;;;;5058406;28;20029;-82
2021/12/11 02:39:40;;;;;;;0.00;0.00;;;9.40;83.40;;;;;;5058324;28;20104;-81
2021/12/11 02:42:24;;;;;;;0.00;0.00;;;9.40;83.40;;;;;;5058020;28;20528;-82
2021/12/11 02:45:07;;;;;;;0.00;0.00;;;9.30;83.20;;;;;;5058342;28;20118;-81
2021/12/11 02:47:39;;;;;;;0.00;0.00;;;9.30;83.50;;;;;;5057386;28;20021;-82
2021/12/11 02:50:23;;;;;;;0.00;0.00;;;9.30;83.50;;;;;;5058224;28;20051;-82
2021/12/11 02:52:55;;;;;;;0.00;0.00;;;9.40;83.80;;;;;;5057833;28;20068;-81
2021/12/11 02:55:42;;;;;;;0.00;0.00;;;9.40;83.50;;;;;;5057926;28;20055;-81
2021/12/11 02:58:18;;;;;;;0.00;0.00;;;9.40;83.00;;;;;;5057938;28;20021;-81
2021/12/11 03:00:53;;;;;;;0.00;0.00;;;9.40;82.90;;;;;;5056183;28;20024;-81
2021/12/11 03:03:26;;;;;;;;;;;9.40;83.00;;;;;;5057478;28;20032;-81
2021/12/11 03:06:02;;;;;;;0.00;0.00;;;9.50;83.00;;;;;;5057308;28;20019;-81
2021/12/11 03:08:27;;;;;;;0.00;0.00;;;9.40;82.60;;;;;;5056546;28;20131;-81
2021/12/11 03:10:58;;;;;;;0.00;0.00;;;9.40;82.70;;;;;;5056336;28;20047;-80
2021/12/11 03:13:27;;;;;;;0.00;0.00;;;9.40;82.80;;;;;;5056873;28;20067;-82
2021/12/11 03:15:54;;;;;;;0.00;0.00;;;9.40;82.90;;;;;;5056863;28;20419;-82
2021/12/11 03:18:20;;;;;;;0.00;0.00;;;9.40;82.80;;;;;;5056038;28;20373;-81
2021/12/11 03:20:47;;;;;;;0.00;0.00;;;9.40;82.90;;;;;;5057447;28;20025;-80
2021/12/11 03:23:15;;;;;;;0.00;0.00;;;9.50;82.80;;;;;;5056337;28;20090;-80
2021/12/11 03:25:41;;;;;;;0.00;0.00;;;9.50;82.70;;;;;;5055997;28;20060;-80
2021/12/11 03:28:09;;;;;;;0.00;0.00;;;9.50;82.30;;;;;;5057041;28;20025;-80
2021/12/11 03:30:39;;;;;;;0.00;0.00;;;9.50;82.30;;;;;;5057228;28;20035;-81
2021/12/11 03:33:12;;;;;;;0.00;0.00;;;9.50;82.20;;;;;;5055459;28;20032;-81
2021/12/11 03:35:40;;;;;;;0.00;0.00;;;9.50;82.30;;;;;;5056593;28;20029;-81
2021/12/11 03:38:07;;;;;;;0.00;0.00;;;9.40;82.40;;;;;;5056477;28;20027;-82
2021/12/11 03:40:33;;;;;;;0.00;0.00;;;9.40;82.30;;;;;;5056864;28;20025;-81
2021/12/11 03:43:02;;;;;;;0.00;0.00;;;9.40;82.30;;;;;;5056659;28;20479;-81
2021/12/11 03:45:33;;;;;;;0.00;0.00;;;9.30;82.30;;;;;;5056752;28;20027;-80
2021/12/11 03:48:08;;;;;;;0.00;0.00;;;9.30;82.60;;;;;;5056499;28;20051;-81
2021/12/11 03:50:34;;;;;;;0.00;0.00;;;9.30;82.90;;;;;;5056121;28;20021;-81
2021/12/11 03:53:01;;;;;;;0.00;0.00;;;9.20;82.90;;;;;;5056224;28;20033;-82
2021/12/11 03:55:32;;;;;;;0.00;0.00;;;9.20;82.90;;;;;;5056122;28;20087;-81
2021/12/11 03:58:00;;;;;;;0.00;0.00;;;9.20;83.00;;;;;;5056114;28;20104;-81
2021/12/11 04:00:50;;;;;;;0.00;0.00;;;9.20;83.00;;;;;;5055108;28;20512;-81
2021/12/11 04:03:20;;;;;;;0.00;0.00;;;9.20;83.30;;;;;;5056242;28;20045;-80
2021/12/11 04:05:47;;;;;;;0.00;0.00;;;9.10;83.50;;;;;;5057013;28;20044;-80
2021/12/11 04:08:18;;;;;;;0.00;0.00;;;9.10;83.50;;;;;;5056776;28;20020;-81
2021/12/11 04:10:45;;;;;;;0.00;0.00;;;9.10;83.50;;;;;;5056486;28;20031;-80
2021/12/11 04:13:13;;;;;;;0.00;0.00;;;9.20;83.50;;;;;;5056889;28;20334;-83
2021/12/11 04:15:40;;;;;;;0.00;0.00;;;9.20;83.60;;;;;;5056993;28;20131;-82
2021/12/11 04:18:07;;;;;;;0.00;0.00;;;9.10;83.70;;;;;;5055958;28;20017;-82
2021/12/11 04:20:36;;;;;;;0.00;0.00;;;9.20;83.50;;;;;;5056157;28;20099;-82
2021/12/11 04:23:03;;;;;;;0.00;0.00;;;9.20;83.80;;;;;;5056602;28;20114;-85
2021/12/11 04:25:29;;;;;;;0.00;0.00;;;9.20;83.80;;;;;;5056187;28;20029;-81
2021/12/11 04:27:56;;;;;;;0.00;0.00;;;9.30;83.50;;;;;;5055971;28;20108;-81
2021/12/11 04:30:23;;;;;;;0.00;0.00;;;9.30;83.50;;;;;;5056275;28;20029;-81
2021/12/11 04:32:52;;;;;;;0.00;0.00;;;9.30;83.40;;;;;;5055711;28;20144;-82
2021/12/11 04:35:19;;;;;;;0.00;0.00;;;9.40;83.30;;;;;;5056495;28;20036;-83
2021/12/11 04:37:44;;;;;;;0.00;0.00;;;9.40;82.90;;;;;;5055958;28;20079;-81
2021/12/11 04:40:18;;;;;;;0.00;0.00;;;9.50;83.00;;;;;;5055542;28;20345;-81
2021/12/11 04:45:36;;;;;;;0.00;0.00;;;9.60;82.80;;;;;;5055608;28;20031;-81
2021/12/11 04:48:14;;;;;;;0.00;0.00;;;9.60;82.40;;;;;;5055190;28;20031;-81
2021/12/11 04:53:58;;;;;;;0.00;0.00;;;9.60;81.70;;;;;;5055650;28;20068;-82
2021/12/11 04:58:51;;;;;;;0.00;0.00;;;9.40;81.90;;;;;;5055468;28;20024;-80
2021/12/11 05:02:10;;;;;;;0.00;0.00;;;9.40;82.10;;;;;;5054986;28;20445;-81
2021/12/11 05:04:56;;;;;;;0.00;0.00;;;9.30;82.30;;;;;;5054908;28;20543;-81
2021/12/11 05:09:40;;;;;;;0.00;0.00;;;9.20;82.70;;;;;;5055004;28;20377;-82
2021/12/11 05:12:30;;;;;;;0.00;0.00;;;9.20;83.10;;;;;;5053736;28;20064;-80
2021/12/11 05:14:56;;;;;;;0.00;0.00;;;9.10;83.00;;;;;;5054096;28;20029;-81
2021/12/11 05:17:23;;;;;;;0.00;0.00;;;9.10;83.10;;;;;;5054770;28;20021;-81
2021/12/11 05:19:49;;;;;;;0.00;0.00;;;9.00;83.30;;;;;;5055668;28;20486;-82
2021/12/11 05:22:16;;;;;;;0.00;0.00;;;9.00;83.60;;;;;;5054351;28;20029;-82
2021/12/11 05:24:47;;;;;;;0.00;0.00;;;8.90;83.80;;;;;;5054392;28;20044;-82
2021/12/11 05:27:13;;;;;;;0.00;0.00;;;8.90;83.50;;;;;;5054754;28;20107;-80
2021/12/11 05:29:40;;;;;;;0.00;0.00;;;8.90;84.00;;;;;;5054521;28;20033;-81
2021/12/11 05:32:08;;;;;;;0.00;0.00;;;8.90;84.10;;;;;;5054191;28;20366;-81
2021/12/11 05:34:34;;;;;;;0.00;0.00;;;8.90;84.10;;;;;;5054882;28;20032;-80
2021/12/11 05:37:00;;;;;;;0.00;0.00;;;8.80;84.20;;;;;;5053489;28;20029;-82
2021/12/11 05:39:26;;;;;;;0.00;0.00;;;8.80;84.30;;;;;;5054441;28;20079;-81
2021/12/11 05:41:53;;;;;;;0.00;0.00;;;8.80;84.10;;;;;;5054965;28;20500;-82
2021/12/11 05:44:21;;;;;;;0.00;0.00;;;8.90;84.30;;;;;;5054309;28;20502;-81
2021/12/11 05:46:47;;;;;;;0.00;0.00;;;8.80;84.20;;;;;;5054669;28;20108;-82
2021/12/11 05:49:15;;;;;;;0.00;0.00;;;8.80;84.30;;;;;;5053217;28;20029;-81
2021/12/11 05:51:43;;;;;;;0.00;0.00;;;8.80;84.30;;;;;;5054452;28;20364;-81
2021/12/11 05:54:23;;;;;;;0.00;0.00;;;8.80;84.40;;;;;;5053874;28;20033;-83
2021/12/11 05:56:55;;;;;;;0.00;0.00;;;8.80;84.30;;;;;;5054654;28;20021;-82
2021/12/11 05:59:23;;;;;;;0.00;0.00;;;8.80;84.20;;;;;;5053673;28;20378;-82
2021/12/11 06:02:24;;;;;;;0.00;0.00;;;8.90;84.30;;;;;;5053960;28;20504;-83
2021/12/11 06:04:52;;;;;;;0.00;0.00;;;8.90;84.30;;;;;;5052680;28;20095;-82
2021/12/11 06:07:21;;;;;;;0.00;0.00;;;8.90;84.10;;;;;;5036429;28;20028;-82
2021/12/11 06:09:51;;;;;;;0.00;0.00;;;8.90;84.20;;;;;;5054262;28;20029;-82
2021/12/11 06:12:20;;;;;;;0.00;0.00;;;8.90;83.90;;;;;;5057648;28;20377;-82
2021/12/11 06:14:48;;;;;;;0.00;0.00;;;8.90;83.70;;;;;;5057773;28;20365;-81
2021/12/11 06:17:18;;;;;;;0.00;0.00;;;8.90;83.60;;;;;;5057835;28;20068;-82
2021/12/11 06:19:51;;;;;;;0.00;0.00;;;8.80;83.50;;;;;;5058966;28;20028;-81
2021/12/11 06:22:21;;;;;;;0.00;0.00;;;8.80;83.50;;;;;;5058150;28;20021;-82
2021/12/11 06:24:47;;;;;;;0.00;0.00;;;8.80;83.70;;;;;;5058117;28;20488;-82
2021/12/11 06:27:14;;;;;;;0.00;0.00;;;8.80;83.50;;;;;;5057996;28;20029;-83
2021/12/11 06:29:40;;;;;;;0.00;0.00;;;8.80;83.50;;;;;;5056513;28;20051;-81
2021/12/11 06:32:06;;;;;;;0.00;0.00;;;8.80;83.60;;;;;;5058048;28;20029;-82
2021/12/11 06:34:34;;;;;;;0.00;0.00;;;8.80;83.30;;;;;;5057320;28;20060;-82
2021/12/11 06:37:00;;;;;;;0.00;0.00;;;8.90;83.20;;;;;;5056188;28;20028;-82
2021/12/11 06:39:26;;;;;;;0.00;0.00;;;8.80;83.40;;;;;;5057693;28;20489;-86
2021/12/11 06:41:56;;;;;;;0.00;0.00;;;8.80;83.40;;;;;;5057811;28;20079;-86
2021/12/11 06:44:27;;;;;;;0.00;0.00;;;8.90;83.10;;;;;;5056728;28;20388;-84
2021/12/11 06:46:55;;;;;;;0.00;0.00;;;8.90;83.00;;;;;;5057297;28;20055;-83
2021/12/11 06:49:22;;;;;;;0.00;0.00;;;8.90;83.30;;;;;;5057542;28;20380;-84
2021/12/11 06:51:48;;;;;;;0.00;0.00;;;8.90;82.90;;;;;;5055955;28;20078;-84
2021/12/11 06:54:15;;;;;;;0.00;0.00;;;8.90;82.90;;;;;;5057383;28;20036;-84
2021/12/11 06:56:42;;;;;;;0.00;0.00;;;8.80;82.70;;;;;;5057853;28;20033;-83
2021/12/11 06:59:10;;;;;;;0.00;0.00;;;8.80;82.90;;;;;;5059175;28;20024;-83
2021/12/11 07:01:37;;;;;;;0.00;0.00;;;8.80;83.00;;;;;;5058884;28;20133;-85
2021/12/11 07:04:06;;;;;;;0.00;0.00;;;8.70;82.90;;;;;;5057865;28;20032;-85
2021/12/11 07:06:34;;;;;;;0.00;0.00;;;8.70;82.90;;;;;;5058571;28;20053;-84
2021/12/11 07:09:02;;;;;;;0.00;0.00;;;8.70;83.20;;;;;;5058277;28;20032;-85
2021/12/11 07:11:28;;;;;;;0.00;0.00;;;8.70;83.20;;;;;;5056174;28;20025;-84
2021/12/11 07:13:54;;;;;;;0.00;0.00;;;8.70;83.20;;;;;;5057603;28;20396;-84
2021/12/11 07:16:20;;;;;;;0.00;0.00;;;8.70;83.20;;;;;;5059407;28;20029;-84
2021/12/11 07:18:46;;;;;;;0.00;0.00;;;8.70;82.90;;;;;;5059552;28;20101;-85
2021/12/11 07:21:12;;;;;;;0.00;0.00;;;8.70;83.00;;;;;;5058218;28;20470;-82
2021/12/11 07:23:44;;;;;;;0.00;0.00;;;8.70;82.80;;;;;;5057524;28;20068;-85
2021/12/11 07:26:23;;;;;;;0.00;0.00;;;8.60;82.70;;;;;;5056814;28;20095;-84
2021/12/11 07:28:55;;;;;;;0.00;0.00;;;8.60;82.80;;;;;;5057073;28;20029;-85
2021/12/11 07:31:21;;;;;;;0.00;0.00;;;8.60;82.90;;;;;;5057130;28;20033;-85
2021/12/11 07:33:48;;;;;;;0.00;0.00;;;8.60;82.80;;;;;;5057081;28;20025;-84
2021/12/11 07:36:14;;;;;;;0.00;0.00;;;8.60;82.90;;;;;;5056707;28;20033;-89
2021/12/11 07:38:40;;;;;;;0.00;0.00;;;8.60;82.70;;;;;;5056600;28;20464;-84
2021/12/11 07:41:08;;;;;;;0.00;0.00;;;8.60;82.50;;;;;;5057660;28;20083;-83
2021/12/11 07:43:38;;;;;;;0.00;0.00;;;8.60;82.60;;;;;;5059239;28;20079;-85
2021/12/11 07:46:05;;;;;;;0.00;0.00;;;8.60;82.80;;;;;;5057401;28;20112;-84
2021/12/11 07:48:31;;;;;;;0.00;0.00;;;8.50;82.50;;;;;;5056361;28;20530;-84
2021/12/11 07:50:57;;;;;;;0.00;0.00;;;8.50;82.40;;;;;;5056202;28;20029;-84
2021/12/11 07:53:23;;;;;;;0.00;0.00;;;8.60;82.50;;;;;;5056837;28;20432;-83
2021/12/11 07:55:50;;;;;;;0.00;0.00;;;8.50;82.50;;;;;;5058663;28;20032;-84
2021/12/11 07:58:17;;;;;;;0.00;0.00;;;8.50;82.40;;;;;;5055704;28;20464;-85
2021/12/11 08:00:44;;;;;;;0.00;0.00;;;8.50;82.40;;;;;;5056322;28;20354;-85
2021/12/11 08:03:12;;;;;;;0.00;0.00;;;8.50;82.40;;;;;;5055953;28;20040;-85
2021/12/11 08:05:39;;;;;;;0.00;0.00;;;8.50;82.40;;;;;;5056822;28;20045;-84
2021/12/11 08:08:06;;;;;;;0.00;0.00;;;8.40;82.40;;;;;;5055630;28;20098;-85
2021/12/11 08:10:34;;;;;;;0.00;0.00;;;8.40;82.50;;;;;;5056548;28;20346;-85
2021/12/11 08:13:02;;;;;;;0.00;0.00;;;8.50;82.70;;;;;;5055630;28;20480;-86
2021/12/11 08:15:28;;;;;;;0.00;0.00;;;8.40;82.80;;;;;;5054749;28;20118;-85
2021/12/11 08:17:54;;;;;;;0.00;0.00;;;8.50;82.60;;;;;;5056376;28;20036;-84
2021/12/11 08:20:26;;;;;;;0.00;0.00;;;8.50;82.50;;;;;;5056092;28;20025;-85
2021/12/11 08:22:53;;;;;;;0.00;0.00;;;8.50;82.80;;;;;;5054574;28;20041;-86
2021/12/11 08:25:20;;;;;;;0.00;0.00;;;8.40;82.90;;;;;;5055903;28;20111;-84
2021/12/11 08:27:46;;;;;;;0.00;0.00;;;8.40;83.10;;;;;;5055102;28;20083;-84
2021/12/11 08:30:16;;;;;;;0.00;0.00;;;8.30;83.10;;;;;;5055592;28;20397;-84
2021/12/11 08:32:42;;;;;;;0.00;0.00;;;8.30;83.80;;;;;;5054072;28;20350;-85
2021/12/11 08:35:11;;;;;;;0.00;0.00;;;8.30;83.80;;;;;;5056062;28;20067;-83
2021/12/11 08:37:41;;;;;;;0.00;0.00;;;8.20;83.80;;;;;;5055921;28;20017;-84
2021/12/11 08:40:12;;;;;;;0.00;0.00;;;8.10;84.50;;;;;;5054936;28;20033;-85
2021/12/11 08:42:39;;;;;;;0.00;0.00;;;8.10;84.50;;;;;;5056178;28;20090;-84
2021/12/11 08:45:09;;;;;;;0.00;0.00;;;8.10;84.90;;;;;;5056018;28;20040;-86
2021/12/11 08:47:40;;;;;;;0.00;0.00;;;8.10;85.40;;;;;;5053974;28;20385;-84
2021/12/11 08:50:13;;;;;;;0.00;0.00;;;8.00;85.40;;;;;;5054875;28;20016;-84
2021/12/11 08:52:41;;;;;;;0.00;0.00;;;8.00;85.80;;;;;;5051306;28;20029;-86
2021/12/11 08:55:14;;;;;;;0.00;0.00;;;8.00;86.00;;;;;;5055740;28;20025;-85
2021/12/11 08:57:41;;;;;;;0.00;0.00;;;8.00;86.40;;;;;;5057117;28;20029;-86
2021/12/11 09:00:34;;;;;;;0.00;0.00;;;8.10;86.60;;;;;;5054544;28;20040;-84
2021/12/11 09:03:10;;;;;;;0.00;0.00;;;8.10;86.30;;;;;;5055590;28;20029;-86
2021/12/11 09:05:51;;;;;;;0.00;0.00;;;8.10;86.30;;;;;;5055647;28;20438;-85
2021/12/11 09:08:29;;;;;;;0.00;0.00;;;8.10;86.80;;;;;;5055621;28;20036;-84
2021/12/11 09:11:10;;;;;;;0.00;0.00;;;8.10;86.40;;;;;;5055183;28;20024;-84
2021/12/11 09:13:45;;;;;;;0.00;0.00;;;8.10;86.50;;;;;;5055126;28;20021;-84
2021/12/11 09:16:11;;;;;;;;;;;8.10;86.50;;;;;;5055410;28;20123;-84
2021/12/11 09:18:43;;;;;;;0.00;0.00;;;8.10;86.30;;;;;;5055449;28;19905;-85
2021/12/11 09:21:19;;;;;;;0.00;0.00;;;8.00;86.30;;;;;;5053823;28;20135;-87
2021/12/11 09:24:03;;;;;;;0.00;0.00;;;7.90;87.00;;;;;;5055208;28;20033;-86
2021/12/11 09:26:50;;;;;;;0.00;0.00;;;7.90;87.10;;;;;;5055167;28;20442;-85
2021/12/11 09:29:33;;;;;;;0.00;0.00;;;8.00;87.20;;;;;;5055127;28;20437;-85
2021/12/11 09:32:22;;;;;;;0.00;0.00;;;8.00;87.40;;;;;;5055167;28;20091;-84
2021/12/11 09:34:56;;;;;;;0.00;0.00;;;8.00;87.20;;;;;;5054542;28;20063;-85
2021/12/11 09:37:23;;;;;;;0.00;0.00;;;8.00;87.60;;;;;;5054991;28;20033;-85
2021/12/11 09:39:52;;;;;;;0.00;0.00;;;8.10;87.60;;;;;;5053375;28;20052;-85
2021/12/11 09:42:18;;;;;;;0.00;0.00;;;8.20;87.40;;;;;;5053705;28;20491;-85
2021/12/11 09:45:19;;;;;;;0.00;0.00;;;8.30;87.00;;;;;;5054778;28;20036;-85
2021/12/11 09:47:52;;;;;;;0.00;0.00;;;8.30;86.30;;;;;;5051189;28;20393;-85
2021/12/11 09:50:34;;;;;;;0.00;0.00;;;8.40;86.30;;;;;;5054708;28;20381;-83
2021/12/11 09:53:00;;;;;;;0.00;0.00;;;8.50;85.60;;;;;;5054677;28;20021;-85
2021/12/11 09:55:37;;;;;;;0.00;0.00;;;8.50;85.30;;;;;;5054476;28;20469;-84
2021/12/11 09:58:10;;;;;;;0.00;0.00;;;8.50;85.00;;;;;;5055196;28;20104;-83
2021/12/11 10:00:48;;;;;;;0.00;0.00;;;8.40;85.20;;;;;;5054870;28;20400;-86
2021/12/11 10:03:16;;;;;;;0.00;0.00;;;8.40;85.90;;;;;;5055128;28;20029;-87
2021/12/11 10:05:59;;;;;;;0.00;0.00;;;8.40;85.50;;;;;;5056323;28;20492;-85
2021/12/11 10:08:37;;;;;;;0.00;0.00;;;8.40;85.30;;;;;;5055709;28;20107;-86
2021/12/11 10:11:19;;;;;;;0.00;0.00;;;8.40;85.60;;;;;;5054262;28;20484;-87
2021/12/11 10:14:02;;;;;;;0.00;0.00;;;8.40;85.30;;;;;;5054496;28;20049;-84
2021/12/11 10:16:33;;;;;;;0.00;0.00;;;8.50;85.20;;;;;;5054240;28;20373;-85
2021/12/11 10:18:58;;;;;;;0.00;0.00;;;8.50;85.30;;;;;;5054695;28;20373;-85
2021/12/11 10:21:35;;;;;;;0.00;0.00;;;8.50;85.50;;;;;;5036916;28;20032;-86
2021/12/11 10:24:07;;;;;;;0.00;0.00;;;8.50;85.60;;;;;;5069865;28;20037;-86
2021/12/11 10:26:33;;;;;;;0.00;0.00;;;8.60;85.50;;;;;;5054605;28;20048;-84
2021/12/11 10:29:04;;;;;;;0.00;0.00;;;8.70;85.30;;;;;;5056011;28;20373;-85
2021/12/11 10:31:35;;;;;;;0.00;0.00;;;8.80;85.20;;;;;;5056392;28;20033;-86
2021/12/11 10:34:04;;;;;;;0.00;0.00;;;8.90;84.60;;;;;;5054139;28;20057;-86
2021/12/11 10:36:39;;;;;;;0.00;0.00;;;9.00;84.40;;;;;;5053830;28;20056;-84
2021/12/11 10:39:11;;;;;;;0.00;0.00;;;9.00;84.10;;;;;;5054676;28;20029;-85
2021/12/11 10:41:37;;;;;;;0.00;0.00;;;9.00;83.60;;;;;;5054590;28;20366;-85
2021/12/11 10:44:11;;;;;;;0.00;0.00;;;9.00;83.30;;;;;;5036690;28;20053;-85
2021/12/11 10:46:52;;;;;;;0.00;0.00;;;9.00;83.40;;;;;;5052793;28;20021;-85
2021/12/11 10:49:18;;;;;;;0.00;0.00;;;9.00;83.60;;;;;;5052879;28;20131;-85
2021/12/11 10:51:54;;;;;;;0.00;0.00;;;9.00;83.60;;;;;;5052643;28;20021;-85
2021/12/11 10:54:22;;;;;;;0.00;0.00;;;9.00;83.80;;;;;;5053802;28;20342;-90
2021/12/11 10:56:49;;;;;;;0.00;0.00;;;9.00;83.90;;;;;;5055123;28;20033;-86
2021/12/11 10:59:38;;;;;;;0.00;0.00;;;9.00;84.10;;;;;;5055859;28;20039;-84
2021/12/11 11:02:12;;;;;;;0.00;0.00;;;9.00;84.00;;;;;;5056825;28;20032;-85
2021/12/11 11:04:45;;;;;;;0.00;0.00;;;9.10;84.00;;;;;;5055644;28;20116;-84
2021/12/11 11:07:11;;;;;;;0.00;0.00;;;9.10;84.00;;;;;;5057114;28;20025;-83
2021/12/11 11:09:39;;;;;;;0.00;0.00;;;9.10;83.90;;;;;;5057027;28;20051;-84
2021/12/11 11:12:09;;;;;;;0.00;0.00;;;9.10;84.00;;;;;;5056574;28;20419;-87
2021/12/11 11:14:36;;;;;;;0.00;0.00;;;9.10;84.10;;;;;;5056389;28;20029;-88
2021/12/11 11:17:07;;;;;;;0.00;0.00;;;9.10;84.40;;;;;;5057150;28;20175;-85
2021/12/11 11:19:38;;;;;;;0.00;0.00;;;9.20;84.60;;;;;;5057293;28;20057;-85
2021/12/11 11:22:08;;;;;;;0.00;0.00;;;9.20;84.50;;;;;;5056667;28;20048;-86
2021/12/11 11:24:38;;;;;;;0.00;0.00;;;9.30;84.10;;;;;;5055570;28;20490;-86
2021/12/11 11:27:05;;;;;;;0.00;0.00;;;9.30;84.00;;;;;;5056003;28;20029;-84
2021/12/11 11:29:31;;;;;;;0.00;0.00;;;9.30;83.90;;;;;;5055525;28;20033;-85
2021/12/11 11:32:02;;;;;;;0.00;0.00;;;9.30;83.90;;;;;;5057134;28;20035;-85
2021/12/11 11:34:31;;;;;;;0.00;0.00;;;9.30;84.10;;;;;;5055846;28;20029;-86
2021/12/11 11:36:59;;;;;;;0.00;0.00;;;9.30;84.30;;;;;;5056457;28;20029;-85
2021/12/11 11:39:27;;;;;;;0.00;0.00;;;9.30;84.50;;;;;;5055360;28;20025;-84
2021/12/11 11:41:57;;;;;;;0.00;0.00;;;9.30;84.50;;;;;;5055304;28;20021;-83
2021/12/11 11:44:26;;;;;;;0.00;0.00;;;9.40;84.50;;;;;;5056588;28;20029;-84
2021/12/11 11:46:56;;;;;;;0.00;0.00;;;9.40;84.70;;;;;;5056261;28;20100;-85
2021/12/11 11:49:22;;;;;;;0.00;0.00;;;9.40;84.60;;;;;;5056173;28;20025;-84
2021/12/11 11:51:59;;;;;;;0.00;0.00;;;9.50;83.70;;;;;;5056935;28;20048;-83
2021/12/11 11:54:28;;;;;;;0.00;0.00;;;9.50;83.40;;;;;;5056548;28;20029;-86
2021/12/11 11:57:12;;;;;;;0.10;0.10;;;9.50;83.30;;;;;;5056627;28;20032;-83
2021/12/11 11:59:39;;;;;;;0.00;0.00;;;9.50;83.00;;;;;;5055809;28;20025;-85
2021/12/11 12:02:27;;;;;;;0.00;0.00;;;9.50;83.70;;;;;;5057255;28;20021;-85
2021/12/11 12:04:56;;;;;;;0.00;0.00;;;9.50;83.00;;;;;;5057575;28;20060;-84
2021/12/11 12:07:27;;;;;;;0.00;0.00;;;9.60;82.90;;;;;;5058570;28;20138;-83
2021/12/11 12:09:56;;;;;;;0.00;0.00;;;9.60;83.00;;;;;;5058511;28;20025;-87
2021/12/11 12:12:23;;;;;;;0.00;0.00;;;9.60;83.20;;;;;;5058892;28;20032;-86
2021/12/11 12:14:52;;;;;;;0.00;0.00;;;9.70;83.10;;;;;;5057138;28;20025;-84
2021/12/11 12:17:20;;;;;;;0.00;0.00;;;9.80;82.70;;;;;;5056468;28;20025;-86
2021/12/11 12:19:49;;;;;;;0.00;0.00;;;9.80;82.20;;;;;;5056253;28;20032;-83
2021/12/11 12:22:17;;;;;;;0.00;0.00;;;9.90;82.20;;;;;;5057112;28;20116;-85
2021/12/11 12:24:44;;;;;;;0.00;0.00;;;9.90;81.90;;;;;;5056053;28;20127;-87
2021/12/11 12:27:16;;;;;;;0.00;0.00;;;9.90;81.50;;;;;;5056074;28;20033;-84
2021/12/11 12:29:44;;;;;;;0.00;0.00;;;9.90;81.30;;;;;;5056628;28;20051;-84
2021/12/11 12:32:18;;;;;;;0.00;0.00;;;9.90;81.20;;;;;;5055135;28;20182;-85
2021/12/11 12:34:46;;;;;;;0.00;0.00;;;9.80;80.50;;;;;;5056690;28;20108;-84
2021/12/11 12:37:13;;;;;;;0.00;0.00;;;9.70;80.30;;;;;;5056411;28;20032;-86
2021/12/11 12:39:43;;;;;;;0.00;0.00;;;9.60;80.50;;;;;;5056490;28;20457;-86
2021/12/11 12:42:18;;;;;;;0.00;0.00;;;9.40;81.00;;;;;;5057396;28;20147;-87
2021/12/11 12:44:49;;;;;;;0.00;0.00;;;9.40;81.30;;;;;;5042129;28;20025;-84
2021/12/11 12:47:35;;;;;;;0.00;0.00;;;9.30;81.30;;;;;;5059660;28;20029;-85
2021/12/11 12:50:10;;;;;;;0.00;0.00;;;9.20;81.60;;;;;;5059797;28;20028;-86
2021/12/11 12:52:42;;;;;;;0.00;0.00;;;9.20;82.00;;;;;;5058755;28;20028;-85
2021/12/11 12:55:19;;;;;;;0.00;0.00;;;9.20;82.20;;;;;;5056364;28;20035;-85
2021/12/11 12:57:47;;;;;;;0.00;0.00;;;9.10;82.90;;;;;;5056693;28;20025;-84
2021/12/11 13:00:27;;;;;;;0.00;0.00;;;9.10;83.50;;;;;;5054978;28;20346;-84
2021/12/11 13:02:59;;;;;;;0.00;0.00;;;9.20;84.00;;;;;;5056246;28;20056;-84
2021/12/11 13:05:48;;;;;;;0.00;0.00;;;9.20;84.00;;;;;;5054391;28;20044;-85
2021/12/11 13:08:21;;;;;;;0.00;0.00;;;9.20;84.50;;;;;;5054423;28;20033;-85
2021/12/11 13:10:55;;;;;;;0.00;0.00;;;9.20;84.70;;;;;;5055005;28;20045;-85
2021/12/11 13:13:24;;;;;;;0.00;0.00;;;9.30;84.70;;;;;;5056975;28;20025;-84
2021/12/11 13:16:04;;;;;;;0.00;0.00;;;9.40;84.20;;;;;;5057541;28;20025;-85
2021/12/11 13:18:33;;;;;;;0.00;0.00;;;9.30;83.90;;;;;;5056880;28;20035;-85
2021/12/11 13:21:07;;;;;;;0.00;0.00;;;9.40;83.60;;;;;;5053838;28;20029;-84
2021/12/11 13:23:35;;;;;;;0.00;0.00;;;9.30;83.10;;;;;;5055618;28;20388;-83
2021/12/11 13:26:04;;;;;;;0.00;0.00;;;9.30;82.80;;;;;;5055474;28;20060;-84
2021/12/11 13:28:38;;;;;;;0.00;0.00;;;9.30;82.70;;;;;;5054743;28;20410;-84
2021/12/11 13:31:12;;;;;;;0.00;0.00;;;9.20;82.30;;;;;;5054531;28;20453;-85
2021/12/11 13:33:39;;;;;;;0.00;0.00;;;9.10;82.20;;;;;;5054007;28;20491;-86